Offenbach, Germany

3:23 AM CEST on April 26, 2015 (GMT +0200)
Frankfurt / Main | | Change Station
CLOSE
Current Station
Airport
Location: Frankfurt,
Elevation: 371 ft
Nearby Weather Stations

Elev 371 ft 50.04 °N, 8.60 °E | Updated 3 minutes ago

Patches of Fog
Patches Fog Shallow Fog
52 °F
Feels Like 52 °F
N
5
Wind Variable Wind from South

Today
High -- | Low -- °F
--% Chance of Precip.
Yesterday
High -- | Low -- °F
Precip. -- in
6:11 AM 8:35 PM
Waxing Crescent, 50% visible
Pressure 29.80 in
Visibility 3.7 miles
Clouds Mostly Cloudy 1400 ft
Dew Point 50 °F
Humidity 94%
Rainfall 0.00 in
Snow Depth Not available.
UV 0 out of 12
Pollen Not available.
Air Quality Not available.
Flu Activity Not available.
METAR EDDF 260120Z 18004KT 6000 R18/0700VP2000U BCFG MIFG BKN014 11/10 Q1009 NOSIG

More Conditions Fewer Conditions

Pressure 29.80 in
Visibility 3.7 miles
Clouds Mostly Cloudy 1400 ft
Dew Point 50 °F
Humidity 94%
Rainfall 0.00 in
Snow Depth Not available.
UV 0 out of 12
Pollen Not available.
Air Quality Not available.
Flu Activity Not available.
METAR EDDF 260120Z 18004KT 6000 R18/0700VP2000U BCFG MIFG BKN014 11/10 Q1009 NOSIG

More Conditions Fewer Conditions

10-Day Weather Forecast

Almanac

Astronomy

Apr. 26, 2015 Rise Set
Actual Time
Civil Twilight
Nautical Twilight
Astronomical Twilight
Moon
Length of Visible Light
Length of Day
Tomorrow will be .
, % of the Moon is Illuminated

Today's Extremes

Country Highs Country Lows

Community

WunderPhotos

Upload Photos

1,816,887 photos uploaded!

WunderBlogs® & News

Nearby

Air Quality

  Air Quality AQ Index Pollutant
Not available.

Snow Depth

Station Depth Elevation

Earthquake Activity

City Distance Mag. Time & Date
Minimum magnitude displayed is 2.5.

Coastal Water Temperatures

Place Temperature

Stations

Nearby Weather Stations

Station Location Temp. Windchill Dew Point Humidity Wind Precip. Elev Updated Type